Redmond, WA (98052)

6:07 AM PST on December 26, 2014 (GMT -0800)
Education Hill - 88th St | Change Station
CLOSE
Current Station
Personal Weather Station
Location: Redmond, WA
Elevation: 282 ft
Nearby Weather Stations

Elev 282 ft 47.68 °N, 122.12 °W | Updated 5 seconds ago

Overcast
Overcast
40.7 °F
Feels Like 41 °F
N
0.0
Wind Variable Wind from NNW
Gusts 0.4 mph

Today
High -- | Low -- °F
--% Chance of Precip.
Yesterday
High -- | Low -- °F
Precip. -- in
7:56 AM 4:22 PM
Waxing Crescent, 26% visible
Pressure 30.35 in
Visibility 5.0 miles
Clouds Overcast 800 ft
Windchill 41 °F
Dew Point 38 °F
Humidity 92%
Rainfall 0.00 in
Snow Depth Not available.
UV 0 out of 12
Pollen 1.40 out of 12
Air Quality Not available.
Flu Activity Not available.
METAR KBFI 261353Z 13003KT 5SM HZ OVC008 05/02 A3035 RMK AO2 SLP277 T00500022

More Conditions Fewer Conditions

Pressure 30.35 in
Visibility 5.0 miles
Clouds Overcast 800 ft
Windchill 41 °F
Dew Point 38 °F
Humidity 92%
Rainfall 0.00 in
Snow Depth Not available.
UV 0 out of 12
Pollen 1.40 out of 12
Air Quality Not available.
Flu Activity Not available.
METAR KBFI 261353Z 13003KT 5SM HZ OVC008 05/02 A3035 RMK AO2 SLP277 T00500022

More Conditions Fewer Conditions

10-Day Weather Forecast

Almanac

Astronomy

Dec. 26, 2014 Rise Set
Actual Time
Civil Twilight
Nautical Twilight
Astronomical Twilight
Moon
Length of Visible Light
Length of Day
Tomorrow will be .
, % of the Moon is Illuminated

Today's Extremes

State Highs State Lows

Community

WunderPhotos

Upload Photos

1,780,593 photos uploaded!

WunderBlogs® & News

Nearby

Air Quality

  Air Quality AQ Index Pollutant
Not available.

Snow Depth

Station Depth Elevation

Earthquake Activity

City Distance Mag. Time & Date
Minimum magnitude displayed is 2.5.

Coastal Water Temperatures

Place Temperature

Nearby Weather Stations